Time;durP1;ratioP1;P1;durP2;ratioP2;P2;SDS_P1;SDS_P2;PMS_P1;PMS_P2;Temp;Humidity;BMP_temperature;BMP_pressure;BME280_temperature;BME280_humidity;BME280_pressure;Samples;Min_cycle;Max_cycle;Signal;HPM_P1;HPM_P2
2024/03/14 00:06:18;;;;;;;52.8;28.2;;;;;;;4.91;89.97;98785;;;;
2024/03/14 00:17:18;;;;;;;52.8;28.2;;;;;;;4.69;89.86;98783.333333333;;;;
2024/03/14 00:27:17;;;;;;;32;18.9;;;;;;;4.5;90.03;98775;;;;
2024/03/14 00:38:19;;;;;;;32;18.9;;;;;;;4.3;89.83;98773.333333333;;;;
2024/03/14 00:48:18;;;;;;;32;18.9;;;;;;;4.08;90.09;98773.333333333;;;;
2024/03/14 00:59:18;;;;;;;32.9;19.2;;;;;;;3.94;89.88;98770;;;;
2024/03/14 01:10:17;;;;;;;32.9;19.2;;;;;;;3.69;89.9;98760;;;;
2024/03/14 01:20:18;;;;;;;33.7;20.4;;;;;;;3.71;90.29;98755;;;;
2024/03/14 01:31:18;;;;;;;33.7;20.4;;;;;;;3.62;90.21;98748.333333333;;;;
2024/03/14 01:42:17;;;;;;;33.7;20.4;;;;;;;3.44;89.8;98745;;;;
2024/03/14 01:52:18;;;;;;;40.3;20.5;;;;;;;3.27;90.85;98728;;;;
2024/03/14 02:03:17;;;;;;;40.3;20.5;;;;;;;3.17;90.49;98731.666666667;;;;
2024/03/14 02:13:18;;;;;;;40.3;20.5;;;;;;;3.05;90.22;98728.333333333;;;;
2024/03/14 02:24:18;;;;;;;30.8;19;;;;;;;2.95;90.8;98730;;;;
2024/03/14 02:34:19;;;;;;;30.8;19;;;;;;;3.06;90.91;98730;;;;
2024/03/14 02:45:20;;;;;;;30.8;19;;;;;;;3.2;90.74;98733.333333333;;;;
2024/03/14 02:56:18;;;;;;;23.5;14.9;;;;;;;3.15;90.54;98725;;;;
2024/03/14 03:06:18;;;;;;;23.5;14.9;;;;;;;3.13;90.48;98720;;;;
2024/03/14 03:17:18;;;;;;;23.5;14.9;;;;;;;2.81;90.7;98726.666666667;;;;
2024/03/14 03:27:18;;;;;;;20.6;13.8;;;;;;;2.79;91.7;98743.333333333;;;;
2024/03/14 03:38:18;;;;;;;20.6;13.8;;;;;;;2.97;91.98;98743.333333333;;;;
2024/03/14 03:49:18;;;;;;;23.2;14.7;;;;;;;3.17;91.86;98738.333333333;;;;
2024/03/14 04:00:41;;;;;;;23.2;14.7;;;;;;;3.2;91.22;98730;;;;
2024/03/14 04:11:18;;;;;;;23.2;14.7;;;;;;;3.37;91.54;98738.333333333;;;;
2024/03/14 04:21:18;;;;;;;24;14.3;;;;;;;3.41;91.41;98743.333333333;;;;
2024/03/14 04:31:19;;;;;;;24;14.3;;;;;;;3.28;90.75;98745;;;;
2024/03/14 04:42:18;;;;;;;24;14.3;;;;;;;3.41;90.6;98756.666666667;;;;
2024/03/14 04:52:18;;;;;;;21.7;12.3;;;;;;;3.41;90.44;98755;;;;
2024/03/14 05:03:18;;;;;;;21.7;12.3;;;;;;;3.32;90.07;98758.333333333;;;;
2024/03/14 05:13:19;;;;;;;21.7;12.3;;;;;;;3.41;90.14;98756.666666667;;;;
2024/03/14 05:23:18;;;;;;;18.7;10.3;;;;;;;3.43;90.39;98753.333333333;;;;
2024/03/14 05:33:18;;;;;;;18.7;10.3;;;;;;;3.45;90.65;98760;;;;
2024/03/14 05:44:18;;;;;;;18.7;10.3;;;;;;;3.74;91;98766.666666667;;;;
2024/03/14 05:54:18;;;;;;;19.1;11.3;;;;;;;3.92;90.97;98778.333333333;;;;
2024/03/14 06:05:18;;;;;;;19.1;11.3;;;;;;;4.33;90.98;98791.666666667;;;;
2024/03/14 06:15:18;;;;;;;19.1;11.3;;;;;;;4.41;89.76;98796.666666667;;;;
2024/03/14 06:26:19;;;;;;;22;12.9;;;;;;;4.59;90.23;98796.666666667;;;;
2024/03/14 06:36:18;;;;;;;22;12.9;;;;;;;4.7;89.32;98806.666666667;;;;
2024/03/14 06:47:18;;;;;;;22;12.9;;;;;;;4.83;90.84;98818.333333333;;;;
2024/03/14 06:58:18;;;;;;;21.3;14.2;;;;;;;5.26;89.17;98814;;;;
2024/03/14 07:08:18;;;;;;;21.3;14.2;;;;;;;5.63;89.27;98824;;;;
2024/03/14 07:18:18;;;;;;;25.5;15.4;;;;;;;5.85;87.66;98824;;;;
2024/03/14 07:29:18;;;;;;;25.5;15.4;;;;;;;6.25;88.4;98830;;;;
2024/03/14 07:40:18;;;;;;;25.5;15.4;;;;;;;6.49;86.95;98836;;;;
2024/03/14 07:50:18;;;;;;;25.5;15.9;;;;;;;6.93;87.39;98838;;;;
2024/03/14 08:01:18;;;;;;;25.5;15.9;;;;;;;7.18;85.86;98844;;;;
2024/03/14 08:11:21;;;;;;;25.5;15.9;;;;;;;7.45;86.12;98842;;;;
2024/03/14 08:22:18;;;;;;;28.4;19;;;;;;;7.97;85.8;98842;;;;
2024/03/14 08:32:18;;;;;;;28.4;19;;;;;;;8.6;83.07;98846;;;;
2024/03/14 08:43:18;;;;;;;28.4;19;;;;;;;9.15;83.53;98848;;;;
2024/03/14 08:53:18;;;;;;;29.3;20.8;;;;;;;9.79;80.97;98844;;;;
2024/03/14 09:04:20;;;;;;;29.3;20.8;;;;;;;10.2;79.59;98844;;;;
2024/03/14 09:15:18;;;;;;;29.3;20.8;;;;;;;10.43;80.01;98832;;;;
2024/03/14 09:26:18;;;;;;;35.7;28;;;;;;;11.08;78;98832;;;;
2024/03/14 09:37:25;;;;;;;35.7;28;;;;;;;11.06;75.45;98826;;;;
2024/03/14 09:48:19;;;;;;;36.1;30.3;;;;;;;11.5;73.05;98822;;;;
2024/03/14 09:58:20;;;;;;;36.1;30.3;;;;;;;11.89;71.72;98822;;;;
2024/03/14 10:09:22;;;;;;;36.1;30.3;;;;;;;12.29;72.1;98824;;;;
2024/03/14 10:19:19;;;;;;;32.3;27.9;;;;;;;12.09;69.1;98826;;;;
2024/03/14 10:29:19;;;;;;;32.3;27.9;;;;;;;12.01;70.63;98828;;;;
2024/03/14 10:40:18;;;;;;;32.3;27.9;;;;;;;11.51;70.16;98824;;;;
2024/03/14 10:50:19;;;;;;;39.5;29.8;;;;;;;11.82;69.81;98824;;;;
2024/03/14 11:01:19;;;;;;;39.5;29.8;;;;;;;11.61;70.85;98830;;;;
2024/03/14 11:11:18;;;;;;;39.5;29.8;;;;;;;11.89;71.44;98830;;;;
2024/03/14 11:22:18;;;;;;;37.8;30.9;;;;;;;11.73;70.36;98828.333333333;;;;
2024/03/14 11:33:18;;;;;;;37.8;30.9;;;;;;;11.91;70.78;98818.333333333;;;;
2024/03/14 11:44:18;;;;;;;37.8;30.9;;;;;;;11.32;70.46;98816.666666667;;;;
2024/03/14 11:54:20;;;;;;;36.1;29.6;;;;;;;11.89;70.53;98806.666666667;;;;
2024/03/14 12:05:23;;;;;;;36.1;29.6;;;;;;;11.89;69.86;98795;;;;
2024/03/14 12:15:18;;;;;;;36.1;29.6;;;;;;;12.13;67.99;98790;;;;
2024/03/14 12:26:18;;;;;;;37.3;27.8;;;;;;;12.02;68.95;98785;;;;
2024/03/14 12:37:22;;;;;;;37.3;27.8;;;;;;;12.3;66.53;98780;;;;
2024/03/14 12:48:19;;;;;;;34.8;25.5;;;;;;;12.19;67.27;98771.666666667;;;;
2024/03/14 12:58:21;;;;;;;34.8;25.5;;;;;;;12.27;68.25;98770;;;;
2024/03/14 13:09:21;;;;;;;34.8;25.5;;;;;;;11.98;67.38;98768.333333333;;;;
2024/03/14 13:20:18;;;;;;;32;25;;;;;;;11.76;67.59;98765;;;;
2024/03/14 13:30:19;;;;;;;32;25;;;;;;;11.49;68.97;98763.333333333;;;;
2024/03/14 13:41:21;;;;;;;32;25;;;;;;;11.72;68.46;98760;;;;
2024/03/14 13:51:18;;;;;;;31.4;23.4;;;;;;;11.46;69.26;98758.333333333;;;;
2024/03/14 14:02:19;;;;;;;31.4;23.4;;;;;;;11.45;69.14;98756.666666667;;;;
2024/03/14 14:13:19;;;;;;;31.4;23.4;;;;;;;11.26;69.4;98744;;;;
2024/03/14 14:23:19;;;;;;;22.9;19;;;;;;;11.25;70.33;98752;;;;
2024/03/14 14:34:18;;;;;;;22.9;19;;;;;;;10.8;71.16;98752;;;;
2024/03/14 14:45:19;;;;;;;22.9;19;;;;;;;11;70.63;98750;;;;
2024/03/14 14:55:18;;;;;;;24.2;15.9;;;;;;;10.68;71.59;98742;;;;
2024/03/14 15:06:18;;;;;;;24.2;15.9;;;;;;;10.49;72.48;98745;;;;
2024/03/14 15:16:18;;;;;;;24.2;15.9;;;;;;;10.6;71.56;98740;;;;
2024/03/14 15:27:22;;;;;;;24.3;16.2;;;;;;;10.1;72.93;98735;;;;
2024/03/14 15:37:19;;;;;;;24.3;16.2;;;;;;;10.01;73.52;98735;;;;
2024/03/14 15:48:21;;;;;;;21.4;13.5;;;;;;;10;73.99;98730;;;;
2024/03/14 15:58:18;;;;;;;21.4;13.5;;;;;;;9.62;74.79;98726.666666667;;;;
2024/03/14 16:09:20;;;;;;;21.4;13.5;;;;;;;9.64;75.04;98730;;;;
2024/03/14 16:19:19;;;;;;;24.5;14.5;;;;;;;9.53;75.28;98731.666666667;;;;
2024/03/14 16:30:18;;;;;;;24.5;14.5;;;;;;;9.04;78.49;98733.333333333;;;;
2024/03/14 16:40:19;;;;;;;24.5;14.5;;;;;;;8.78;79.69;98733.333333333;;;;
2024/03/14 16:51:18;;;;;;;21.7;11.7;;;;;;;8.49;81.29;98735;;;;
2024/03/14 17:01:19;;;;;;;21.7;11.7;;;;;;;8.48;81.46;98738.333333333;;;;
2024/03/14 17:11:18;;;;;;;21.7;11.7;;;;;;;8.33;82.18;98740;;;;
2024/03/14 17:22:18;;;;;;;20.6;12;;;;;;;8.09;83.06;98736.666666667;;;;
2024/03/14 17:32:18;;;;;;;20.6;12;;;;;;;8.16;82.36;98734;;;;
2024/03/14 17:43:18;;;;;;;20.6;12;;;;;;;8.22;82.16;98738;;;;
2024/03/14 17:54:18;;;;;;;21.1;12.4;;;;;;;8.05;82.74;98738;;;;
2024/03/14 18:04:21;;;;;;;21.1;12.4;;;;;;;7.89;83.09;98740;;;;
2024/03/14 18:14:19;;;;;;;21.1;12.4;;;;;;;7.89;82.83;98742;;;;
2024/03/14 18:25:19;;;;;;;21.9;13.9;;;;;;;7.81;83.01;98738;;;;
2024/03/14 18:36:21;;;;;;;21.9;13.9;;;;;;;7.66;83.43;98750;;;;
2024/03/14 18:46:19;;;;;;;21.9;13.9;;;;;;;7.46;83.98;98746.666666667;;;;
2024/03/14 18:56:18;;;;;;;23.1;14.8;;;;;;;7.41;83.4;98750;;;;
2024/03/14 19:06:19;;;;;;;23.1;14.8;;;;;;;7.13;83.7;98753.333333333;;;;
2024/03/14 19:16:18;;;;;;;23.1;14.8;;;;;;;6.98;83.14;98748.333333333;;;;
2024/03/14 19:26:19;;;;;;;28.2;15.4;;;;;;;6.65;83.73;98743.333333333;;;;
2024/03/14 19:37:20;;;;;;;28.2;15.4;;;;;;;6.29;83.88;98743.333333333;;;;
2024/03/14 19:47:18;;;;;;;28.2;15.4;;;;;;;5.88;85.28;98743.333333333;;;;
2024/03/14 19:58:18;;;;;;;26;15.3;;;;;;;5.6;85.58;98741.666666667;;;;
2024/03/14 20:09:19;;;;;;;26;15.3;;;;;;;5.3;86.01;98720;;;;
2024/03/14 20:19:19;;;;;;;28.8;16.6;;;;;;;5.03;86.38;98714;;;;
2024/03/14 20:29:18;;;;;;;28.8;16.6;;;;;;;4.73;86.42;98708;;;;
2024/03/14 20:39:24;;;;;;;28.8;16.6;;;;;;;4.4;86.34;98715;;;;
2024/03/14 20:50:20;;;;;;;33.7;19;;;;;;;4.12;88.45;98708.333333333;;;;
2024/03/14 21:00:24;;;;;;;33.7;19;;;;;;;4.01;88.07;98706.666666667;;;;
2024/03/14 21:11:18;;;;;;;33.7;19;;;;;;;3.79;88.7;98706.666666667;;;;
2024/03/14 21:21:19;;;;;;;33.2;18.8;;;;;;;3.64;88.64;98698.333333333;;;;
2024/03/14 21:31:18;;;;;;;33.2;18.8;;;;;;;3.59;88.91;98695;;;;
2024/03/14 21:42:18;;;;;;;33.2;18.8;;;;;;;3.49;89.44;98703.333333333;;;;
2024/03/14 21:53:18;;;;;;;36.8;19.2;;;;;;;3.31;88.81;98711.666666667;;;;
2024/03/14 22:03:18;;;;;;;36.8;19.2;;;;;;;3.2;88.74;98702;;;;
2024/03/14 22:14:18;;;;;;;36.8;19.2;;;;;;;2.92;89.22;98713.333333333;;;;
2024/03/14 22:24:18;;;;;;;33.3;19.8;;;;;;;2.86;89.45;98711.666666667;;;;
2024/03/14 22:35:18;;;;;;;33.3;19.8;;;;;;;2.65;89.8;98698.333333333;;;;
2024/03/14 22:45:18;;;;;;;33.3;19.8;;;;;;;2.52;90.47;98693.333333333;;;;
2024/03/14 22:56:18;;;;;;;36.6;21.6;;;;;;;2.49;91.35;98691.666666667;;;;
2024/03/14 23:06:19;;;;;;;36.6;21.6;;;;;;;2.45;90.83;98691.666666667;;;;
2024/03/14 23:17:19;;;;;;;32;19.5;;;;;;;2.33;90.25;98698.333333333;;;;
2024/03/14 23:27:18;;;;;;;32;19.5;;;;;;;2.07;91.25;98688.333333333;;;;
2024/03/14 23:38:19;;;;;;;32;19.5;;;;;;;2.11;91.01;98696.666666667;;;;
2024/03/14 23:48:20;;;;;;;29.1;18.8;;;;;;;2.22;91.24;98695;;;;
2024/03/14 23:59:18;;;;;;;29.1;18.8;;;;;;;2.25;90.73;98690;;;;
